sensor_id;sensor_type;location;lat;lon;timestamp;pressure;altitude;pressure_sealevel;temperature;humidity
64683;BME280;51107;47.652;19.016;2022-08-04T00:01:17;100037.97;;;20.05;54.54
64683;BME280;51107;47.652;19.016;2022-08-04T00:04:07;100040.00;;;20.16;52.71
64683;BME280;51107;47.652;19.016;2022-08-04T00:06:54;100036.97;;;19.99;54.61
64683;BME280;51107;47.652;19.016;2022-08-04T00:12:16;100034.09;;;20.14;50.95
64683;BME280;51107;47.652;19.016;2022-08-04T00:14:49;100035.69;;;20.28;50.81
64683;BME280;51107;47.652;19.016;2022-08-04T00:17:23;100032.47;;;20.13;51.02
64683;BME280;51107;47.652;19.016;2022-08-04T00:19:59;100036.72;;;20.20;50.27
64683;BME280;51107;47.652;19.016;2022-08-04T00:22:30;100028.41;;;20.03;51.48
64683;BME280;51107;47.652;19.016;2022-08-04T00:25:02;100034.47;;;20.24;50.71
64683;BME280;51107;47.652;19.016;2022-08-04T00:27:31;100030.66;;;20.00;52.76
64683;BME280;51107;47.652;19.016;2022-08-04T00:30:05;100038.19;;;20.03;52.57
64683;BME280;51107;47.652;19.016;2022-08-04T00:32:34;100036.75;;;20.07;52.57
64683;BME280;51107;47.652;19.016;2022-08-04T00:35:02;100035.78;;;19.81;54.22
64683;BME280;51107;47.652;19.016;2022-08-04T00:37:31;100039.00;;;19.83;54.72
64683;BME280;51107;47.652;19.016;2022-08-04T00:40:22;100035.94;;;20.00;55.15
64683;BME280;51107;47.652;19.016;2022-08-04T00:43:09;100042.84;;;20.14;55.08
64683;BME280;51107;47.652;19.016;2022-08-04T00:45:49;100036.97;;;19.99;55.77
64683;BME280;51107;47.652;19.016;2022-08-04T00:51:42;100050.19;;;19.99;56.29
64683;BME280;51107;47.652;19.016;2022-08-04T00:54:28;100046.50;;;20.07;54.73
64683;BME280;51107;47.652;19.016;2022-08-04T01:00:04;100047.56;;;20.06;57.25
64683;BME280;51107;47.652;19.016;2022-08-04T01:11:24;100053.97;;;20.43;59.38
64683;BME280;51107;47.652;19.016;2022-08-04T01:14:20;100048.72;;;20.23;58.03
64683;BME280;51107;47.652;19.016;2022-08-04T01:16:59;100052.53;;;20.41;59.83
64683;BME280;51107;47.652;19.016;2022-08-04T01:19:59;100053.53;;;20.46;60.13
64683;BME280;51107;47.652;19.016;2022-08-04T01:25:02;100050.78;;;20.21;60.66
64683;BME280;51107;47.652;19.016;2022-08-04T01:28:13;100052.78;;;20.32;60.50
64683;BME280;51107;47.652;19.016;2022-08-04T01:30:48;100057.41;;;20.44;61.05
64683;BME280;51107;47.652;19.016;2022-08-04T01:33:18;100061.88;;;20.57;60.60
64683;BME280;51107;47.652;19.016;2022-08-04T01:35:59;100055.31;;;20.59;60.68
64683;BME280;51107;47.652;19.016;2022-08-04T01:38:35;100059.78;;;20.65;59.78
64683;BME280;51107;47.652;19.016;2022-08-04T01:41:07;100056.75;;;20.55;59.29
64683;BME280;51107;47.652;19.016;2022-08-04T01:43:44;100056.44;;;20.31;59.74
64683;BME280;51107;47.652;19.016;2022-08-04T01:46:15;100051.31;;;20.43;60.08
64683;BME280;51107;47.652;19.016;2022-08-04T01:48:52;100054.97;;;20.42;60.52
64683;BME280;51107;47.652;19.016;2022-08-04T01:51:21;100050.06;;;20.52;60.44
64683;BME280;51107;47.652;19.016;2022-08-04T01:53:51;100046.75;;;20.64;60.45
64683;BME280;51107;47.652;19.016;2022-08-04T01:56:20;100051.63;;;20.74;59.77
64683;BME280;51107;47.652;19.016;2022-08-04T01:58:49;100041.44;;;20.77;59.83
64683;BME280;51107;47.652;19.016;2022-08-04T02:01:17;100049.19;;;20.79;59.49
64683;BME280;51107;47.652;19.016;2022-08-04T02:03:46;100041.56;;;20.89;58.75
64683;BME280;51107;47.652;19.016;2022-08-04T02:06:51;100049.56;;;20.82;59.85
64683;BME280;51107;47.652;19.016;2022-08-04T02:09:37;100051.09;;;20.51;60.35
64683;BME280;51107;47.652;19.016;2022-08-04T02:15:37;100047.88;;;20.43;60.41
64683;BME280;51107;47.652;19.016;2022-08-04T02:18:18;100047.59;;;20.51;60.47
64683;BME280;51107;47.652;19.016;2022-08-04T02:20:56;100048.03;;;20.48;60.93
64683;BME280;51107;47.652;19.016;2022-08-04T02:23:37;100039.44;;;20.59;60.30
64683;BME280;51107;47.652;19.016;2022-08-04T02:26:14;100042.09;;;20.59;60.01
64683;BME280;51107;47.652;19.016;2022-08-04T02:29:10;100037.63;;;20.60;60.06
64683;BME280;51107;47.652;19.016;2022-08-04T02:32:03;100035.00;;;20.53;59.66
64683;BME280;51107;47.652;19.016;2022-08-04T02:37:19;100037.41;;;20.68;60.17
64683;BME280;51107;47.652;19.016;2022-08-04T02:39:52;100031.72;;;20.58;60.81
64683;BME280;51107;47.652;19.016;2022-08-04T02:42:20;100032.12;;;20.61;59.75
64683;BME280;51107;47.652;19.016;2022-08-04T02:44:50;100041.47;;;20.64;59.53
64683;BME280;51107;47.652;19.016;2022-08-04T02:47:20;100027.63;;;20.62;60.08
64683;BME280;51107;47.652;19.016;2022-08-04T02:49:50;100025.81;;;20.56;60.37
64683;BME280;51107;47.652;19.016;2022-08-04T02:52:20;100031.81;;;20.37;61.06
64683;BME280;51107;47.652;19.016;2022-08-04T02:54:55;100027.84;;;19.88;62.64
64683;BME280;51107;47.652;19.016;2022-08-04T02:57:29;100019.06;;;19.94;62.38
64683;BME280;51107;47.652;19.016;2022-08-04T03:00:07;100024.34;;;20.08;61.31
64683;BME280;51107;47.652;19.016;2022-08-04T03:02:54;100023.09;;;20.24;61.25
64683;BME280;51107;47.652;19.016;2022-08-04T03:14:23;100033.06;;;20.15;62.19
64683;BME280;51107;47.652;19.016;2022-08-04T03:45:28;100033.91;;;20.02;62.90
64683;BME280;51107;47.652;19.016;2022-08-04T04:02:45;100045.03;;;19.04;67.21
64683;BME280;51107;47.652;19.016;2022-08-04T04:05:25;100047.69;;;19.04;66.90
64683;BME280;51107;47.652;19.016;2022-08-04T04:11:27;100043.25;;;19.17;67.18
64683;BME280;51107;47.652;19.016;2022-08-04T04:20:24;100038.34;;;19.21;66.71
64683;BME280;51107;47.652;19.016;2022-08-04T04:23:20;100050.37;;;19.30;66.52
64683;BME280;51107;47.652;19.016;2022-08-04T04:25:58;100050.56;;;19.49;65.71
64683;BME280;51107;47.652;19.016;2022-08-04T04:36:54;100051.78;;;19.53;67.11
64683;BME280;51107;47.652;19.016;2022-08-04T04:45:02;100055.69;;;19.84;66.12
64683;BME280;51107;47.652;19.016;2022-08-04T04:48:11;100057.94;;;19.87;66.33
64683;BME280;51107;47.652;19.016;2022-08-04T04:54:02;100057.06;;;20.27;66.08
64683;BME280;51107;47.652;19.016;2022-08-04T04:59:09;100060.25;;;20.49;64.84
64683;BME280;51107;47.652;19.016;2022-08-04T05:01:45;100063.25;;;20.59;65.29
64683;BME280;51107;47.652;19.016;2022-08-04T05:04:24;100064.69;;;20.68;63.96
64683;BME280;51107;47.652;19.016;2022-08-04T05:07:17;100070.75;;;20.76;63.18
64683;BME280;51107;47.652;19.016;2022-08-04T05:15:55;100068.13;;;21.14;60.18
64683;BME280;51107;47.652;19.016;2022-08-04T05:18:27;100074.56;;;21.25;61.05
64683;BME280;51107;47.652;19.016;2022-08-04T05:23:48;100073.34;;;21.60;59.18
64683;BME280;51107;47.652;19.016;2022-08-04T05:26:17;100078.78;;;21.71;59.23
64683;BME280;51107;47.652;19.016;2022-08-04T05:28:56;100075.63;;;21.81;59.86
64683;BME280;51107;47.652;19.016;2022-08-04T05:31:31;100080.00;;;21.94;59.52
64683;BME280;51107;47.652;19.016;2022-08-04T05:34:08;100086.19;;;22.06;58.78
64683;BME280;51107;47.652;19.016;2022-08-04T05:36:46;100085.50;;;22.18;58.70
64683;BME280;51107;47.652;19.016;2022-08-04T05:39:27;100083.53;;;22.32;57.26
64683;BME280;51107;47.652;19.016;2022-08-04T05:42:01;100084.78;;;22.48;57.95
64683;BME280;51107;47.652;19.016;2022-08-04T05:44:35;100079.94;;;22.63;56.24
64683;BME280;51107;47.652;19.016;2022-08-04T05:47:05;100090.03;;;22.73;54.88
64683;BME280;51107;47.652;19.016;2022-08-04T05:49:36;100094.59;;;22.84;51.85
64683;BME280;51107;47.652;19.016;2022-08-04T05:52:06;100102.03;;;22.94;51.70
64683;BME280;51107;47.652;19.016;2022-08-04T05:54:35;100093.75;;;23.02;52.07
64683;BME280;51107;47.652;19.016;2022-08-04T05:57:06;100089.53;;;23.13;50.74
64683;BME280;51107;47.652;19.016;2022-08-04T05:59:37;100102.50;;;23.21;51.85
64683;BME280;51107;47.652;19.016;2022-08-04T06:02:07;100101.50;;;23.34;51.90
64683;BME280;51107;47.652;19.016;2022-08-04T06:04:38;100104.53;;;23.50;48.77
64683;BME280;51107;47.652;19.016;2022-08-04T06:07:08;100106.16;;;23.51;49.01
64683;BME280;51107;47.652;19.016;2022-08-04T06:09:40;100106.06;;;23.57;48.84
64683;BME280;51107;47.652;19.016;2022-08-04T06:12:39;100091.41;;;23.67;49.62
64683;BME280;51107;47.652;19.016;2022-08-04T06:15:11;100106.19;;;23.74;47.83
64683;BME280;51107;47.652;19.016;2022-08-04T06:17:48;100104.25;;;23.82;46.60
64683;BME280;51107;47.652;19.016;2022-08-04T06:20:38;100107.41;;;23.90;46.51
64683;BME280;51107;47.652;19.016;2022-08-04T06:23:18;100109.13;;;23.97;47.58
64683;BME280;51107;47.652;19.016;2022-08-04T06:25:54;100098.37;;;24.03;47.50
64683;BME280;51107;47.652;19.016;2022-08-04T06:28:26;100104.75;;;24.14;47.26
64683;BME280;51107;47.652;19.016;2022-08-04T06:30:55;100110.63;;;24.28;46.26
64683;BME280;51107;47.652;19.016;2022-08-04T06:33:49;100096.97;;;24.36;43.88
64683;BME280;51107;47.652;19.016;2022-08-04T06:36:23;100103.44;;;24.40;44.31
64683;BME280;51107;47.652;19.016;2022-08-04T06:38:52;100112.47;;;24.51;46.14
64683;BME280;51107;47.652;19.016;2022-08-04T06:41:27;100108.28;;;24.43;44.96
64683;BME280;51107;47.652;19.016;2022-08-04T06:44:00;100097.87;;;24.54;44.36
64683;BME280;51107;47.652;19.016;2022-08-04T06:46:30;100103.53;;;24.69;45.24
64683;BME280;51107;47.652;19.016;2022-08-04T06:48:59;100099.34;;;24.73;44.92
64683;BME280;51107;47.652;19.016;2022-08-04T06:51:29;100109.97;;;24.85;46.14
64683;BME280;51107;47.652;19.016;2022-08-04T06:54:06;100103.22;;;24.95;43.51
64683;BME280;51107;47.652;19.016;2022-08-04T06:56:34;100098.88;;;25.05;44.88
64683;BME280;51107;47.652;19.016;2022-08-04T06:59:07;100100.47;;;24.89;44.44
64683;BME280;51107;47.652;19.016;2022-08-04T07:01:38;100096.72;;;25.19;45.17
64683;BME280;51107;47.652;19.016;2022-08-04T07:04:07;100100.53;;;25.23;44.81
64683;BME280;51107;47.652;19.016;2022-08-04T07:06:37;100098.78;;;25.29;44.42
64683;BME280;51107;47.652;19.016;2022-08-04T07:09:06;100105.28;;;25.33;45.69
64683;BME280;51107;47.652;19.016;2022-08-04T07:11:35;100098.56;;;25.65;43.14
64683;BME280;51107;47.652;19.016;2022-08-04T07:14:12;100097.53;;;25.49;43.36
64683;BME280;51107;47.652;19.016;2022-08-04T07:16:42;100102.72;;;25.72;43.46
64683;BME280;51107;47.652;19.016;2022-08-04T07:19:11;100100.78;;;26.02;42.91
64683;BME280;51107;47.652;19.016;2022-08-04T07:21:46;100107.72;;;26.03;44.32
64683;BME280;51107;47.652;19.016;2022-08-04T07:24:36;100100.09;;;26.28;42.65
64683;BME280;51107;47.652;19.016;2022-08-04T07:27:08;100093.19;;;26.55;42.39
64683;BME280;51107;47.652;19.016;2022-08-04T07:29:37;100101.56;;;26.64;41.77
64683;BME280;51107;47.652;19.016;2022-08-04T07:32:07;100093.56;;;26.86;42.56
64683;BME280;51107;47.652;19.016;2022-08-04T07:34:39;100095.94;;;27.37;42.73
64683;BME280;51107;47.652;19.016;2022-08-04T07:37:09;100091.66;;;27.68;40.32
64683;BME280;51107;47.652;19.016;2022-08-04T07:39:40;100087.87;;;28.02;39.14
64683;BME280;51107;47.652;19.016;2022-08-04T07:42:18;100099.75;;;28.16;38.71
64683;BME280;51107;47.652;19.016;2022-08-04T07:44:47;100091.28;;;28.40;39.42
64683;BME280;51107;47.652;19.016;2022-08-04T07:47:15;100095.84;;;29.23;37.76
64683;BME280;51107;47.652;19.016;2022-08-04T07:49:47;100086.19;;;29.33;37.57
64683;BME280;51107;47.652;19.016;2022-08-04T07:52:25;100081.09;;;29.31;41.18
64683;BME280;51107;47.652;19.016;2022-08-04T07:54:54;100083.25;;;29.50;36.26
64683;BME280;51107;47.652;19.016;2022-08-04T07:57:22;100081.06;;;29.93;36.81
64683;BME280;51107;47.652;19.016;2022-08-04T08:00:13;100073.34;;;30.57;34.54
64683;BME280;51107;47.652;19.016;2022-08-04T08:02:44;100075.31;;;30.30;37.25
64683;BME280;51107;47.652;19.016;2022-08-04T08:05:17;100076.00;;;30.62;34.73
64683;BME280;51107;47.652;19.016;2022-08-04T08:07:50;100073.25;;;30.77;34.85
64683;BME280;51107;47.652;19.016;2022-08-04T08:10:23;100076.47;;;31.48;33.11
64683;BME280;51107;47.652;19.016;2022-08-04T08:12:52;100076.66;;;31.62;33.07
64683;BME280;51107;47.652;19.016;2022-08-04T08:15:21;100075.41;;;31.79;32.82
64683;BME280;51107;47.652;19.016;2022-08-04T08:17:50;100074.09;;;31.12;32.76
64683;BME280;51107;47.652;19.016;2022-08-04T08:20:29;100067.41;;;31.05;35.38
64683;BME280;51107;47.652;19.016;2022-08-04T08:23:00;100068.72;;;31.12;35.24
64683;BME280;51107;47.652;19.016;2022-08-04T08:25:30;100067.75;;;31.32;34.47
64683;BME280;51107;47.652;19.016;2022-08-04T08:28:02;100073.63;;;32.23;32.33
64683;BME280;51107;47.652;19.016;2022-08-04T08:30:33;100070.06;;;32.90;31.22
64683;BME280;51107;47.652;19.016;2022-08-04T08:33:07;100065.97;;;32.73;30.91
64683;BME280;51107;47.652;19.016;2022-08-04T08:38:48;100073.59;;;32.85;30.64
64683;BME280;51107;47.652;19.016;2022-08-04T08:44:09;100072.06;;;32.60;31.50
64683;BME280;51107;47.652;19.016;2022-08-04T08:50:25;100075.81;;;33.02;30.18
64683;BME280;51107;47.652;19.016;2022-08-04T08:53:34;100073.72;;;33.79;28.91
64683;BME280;51107;47.652;19.016;2022-08-04T09:02:01;100074.75;;;34.39;28.24
64683;BME280;51107;47.652;19.016;2022-08-04T09:10:23;100069.31;;;35.12;28.18
64683;BME280;51107;47.652;19.016;2022-08-04T09:15:48;100071.53;;;33.95;26.38
64683;BME280;51107;47.652;19.016;2022-08-04T09:18:31;100070.75;;;33.94;27.21
64683;BME280;51107;47.652;19.016;2022-08-04T09:21:30;100064.44;;;33.38;27.72
64683;BME280;51107;47.652;19.016;2022-08-04T09:27:24;100065.81;;;33.96;26.97
64683;BME280;51107;47.652;19.016;2022-08-04T09:30:06;100070.66;;;33.52;27.38
64683;BME280;51107;47.652;19.016;2022-08-04T09:38:28;100064.09;;;34.42;25.21
64683;BME280;51107;47.652;19.016;2022-08-04T09:41:07;100052.16;;;34.57;28.33
64683;BME280;51107;47.652;19.016;2022-08-04T09:47:43;100055.53;;;34.99;27.49
64683;BME280;51107;47.652;19.016;2022-08-04T09:50:32;100047.47;;;35.08;25.39
64683;BME280;51107;47.652;19.016;2022-08-04T09:55:59;100056.00;;;35.01;27.04
64683;BME280;51107;47.652;19.016;2022-08-04T09:58:43;100052.19;;;35.25;25.97
64683;BME280;51107;47.652;19.016;2022-08-04T10:01:23;100036.59;;;34.99;24.89
64683;BME280;51107;47.652;19.016;2022-08-04T10:03:58;100041.59;;;34.33;29.10
64683;BME280;51107;47.652;19.016;2022-08-04T10:06:59;100036.38;;;35.41;31.45
64683;BME280;51107;47.652;19.016;2022-08-04T10:09:51;100031.50;;;35.29;24.37
64683;BME280;51107;47.652;19.016;2022-08-04T10:26:27;100020.63;;;35.43;26.94
64683;BME280;51107;47.652;19.016;2022-08-04T10:29:03;100017.09;;;35.83;27.65
64683;BME280;51107;47.652;19.016;2022-08-04T10:31:35;100017.72;;;34.49;26.31
64683;BME280;51107;47.652;19.016;2022-08-04T10:39:36;100015.34;;;35.47;25.00
64683;BME280;51107;47.652;19.016;2022-08-04T10:42:20;100013.72;;;35.37;27.28
64683;BME280;51107;47.652;19.016;2022-08-04T10:45:18;100004.38;;;35.52;27.75
64683;BME280;51107;47.652;19.016;2022-08-04T10:47:58;100006.63;;;35.99;25.28
64683;BME280;51107;47.652;19.016;2022-08-04T10:50:29;100012.19;;;35.53;24.44
64683;BME280;51107;47.652;19.016;2022-08-04T10:53:02;100000.44;;;35.27;26.41
64683;BME280;51107;47.652;19.016;2022-08-04T10:55:41;100002.47;;;35.52;24.86
64683;BME280;51107;47.652;19.016;2022-08-04T10:58:39;99993.59;;;35.29;26.82
64683;BME280;51107;47.652;19.016;2022-08-04T11:01:34;99992.22;;;35.09;29.93
64683;BME280;51107;47.652;19.016;2022-08-04T11:04:45;99990.38;;;34.73;27.44
64683;BME280;51107;47.652;19.016;2022-08-04T11:07:15;99990.66;;;34.12;27.50
64683;BME280;51107;47.652;19.016;2022-08-04T11:09:46;99987.63;;;33.72;26.65
64683;BME280;51107;47.652;19.016;2022-08-04T11:12:24;99984.84;;;33.63;30.34
64683;BME280;51107;47.652;19.016;2022-08-04T11:15:12;99983.53;;;34.16;27.06
64683;BME280;51107;47.652;19.016;2022-08-04T11:17:46;99981.31;;;34.18;28.47
64683;BME280;51107;47.652;19.016;2022-08-04T11:23:08;99973.34;;;33.85;28.03
64683;BME280;51107;47.652;19.016;2022-08-04T11:25:57;99980.34;;;33.59;28.22
64683;BME280;51107;47.652;19.016;2022-08-04T11:31:29;99978.84;;;33.66;26.84
64683;BME280;51107;47.652;19.016;2022-08-04T11:36:49;99969.16;;;33.51;29.87
64683;BME280;51107;47.652;19.016;2022-08-04T11:39:26;99963.16;;;33.41;26.32
64683;BME280;51107;47.652;19.016;2022-08-04T11:42:13;99968.84;;;33.67;27.29
64683;BME280;51107;47.652;19.016;2022-08-04T11:44:48;99960.44;;;33.41;26.41
64683;BME280;51107;47.652;19.016;2022-08-04T11:50:45;99960.19;;;33.23;27.17
64683;BME280;51107;47.652;19.016;2022-08-04T11:53:24;99953.34;;;32.98;28.12
64683;BME280;51107;47.652;19.016;2022-08-04T11:56:06;99948.41;;;32.86;28.12
64683;BME280;51107;47.652;19.016;2022-08-04T11:58:39;99941.78;;;32.78;28.16
64683;BME280;51107;47.652;19.016;2022-08-04T12:01:34;99940.72;;;32.60;28.66
64683;BME280;51107;47.652;19.016;2022-08-04T12:04:35;99937.53;;;32.77;27.39
64683;BME280;51107;47.652;19.016;2022-08-04T12:07:19;99929.31;;;32.82;27.29
64683;BME280;51107;47.652;19.016;2022-08-04T12:10:20;99932.63;;;32.60;27.13
64683;BME280;51107;47.652;19.016;2022-08-04T12:13:31;99924.34;;;32.38;28.79
64683;BME280;51107;47.652;19.016;2022-08-04T12:18:38;99921.06;;;31.59;29.86
64683;BME280;51107;47.652;19.016;2022-08-04T12:21:32;99917.59;;;31.78;29.03
64683;BME280;51107;47.652;19.016;2022-08-04T12:24:17;99909.94;;;31.66;30.71
64683;BME280;51107;47.652;19.016;2022-08-04T12:26:56;99909.75;;;32.00;28.50
64683;BME280;51107;47.652;19.016;2022-08-04T12:29:30;99910.19;;;31.89;28.84
64683;BME280;51107;47.652;19.016;2022-08-04T12:32:10;99904.78;;;31.89;28.25
64683;BME280;51107;47.652;19.016;2022-08-04T12:34:47;99899.22;;;32.04;28.27
64683;BME280;51107;47.652;19.016;2022-08-04T12:37:33;99903.44;;;32.10;28.94
64683;BME280;51107;47.652;19.016;2022-08-04T12:40:10;99903.50;;;32.05;29.39
64683;BME280;51107;47.652;19.016;2022-08-04T12:43:08;99900.25;;;32.08;27.83
64683;BME280;51107;47.652;19.016;2022-08-04T12:46:00;99907.44;;;31.94;28.19
64683;BME280;51107;47.652;19.016;2022-08-04T12:48:31;99903.38;;;32.15;27.91
64683;BME280;51107;47.652;19.016;2022-08-04T12:51:03;99897.53;;;32.08;28.23
64683;BME280;51107;47.652;19.016;2022-08-04T12:53:35;99897.69;;;31.98;28.82
64683;BME280;51107;47.652;19.016;2022-08-04T12:56:25;99885.81;;;31.99;27.92
64683;BME280;51107;47.652;19.016;2022-08-04T12:59:00;99889.81;;;31.82;27.97
64683;BME280;51107;47.652;19.016;2022-08-04T13:01:29;99889.28;;;31.80;28.99
64683;BME280;51107;47.652;19.016;2022-08-04T13:04:21;99887.06;;;31.88;28.78
64683;BME280;51107;47.652;19.016;2022-08-04T13:07:00;99880.75;;;31.73;29.29
64683;BME280;51107;47.652;19.016;2022-08-04T13:09:31;99888.78;;;31.78;29.69
64683;BME280;51107;47.652;19.016;2022-08-04T13:12:04;99886.16;;;31.73;29.25
64683;BME280;51107;47.652;19.016;2022-08-04T13:14:35;99873.84;;;31.67;27.82
64683;BME280;51107;47.652;19.016;2022-08-04T13:17:05;99868.16;;;31.44;28.66
64683;BME280;51107;47.652;19.016;2022-08-04T13:19:36;99871.72;;;31.64;28.75
64683;BME280;51107;47.652;19.016;2022-08-04T13:22:08;99867.94;;;31.65;28.40
64683;BME280;51107;47.652;19.016;2022-08-04T13:24:39;99861.19;;;32.06;28.20
64683;BME280;51107;47.652;19.016;2022-08-04T13:27:28;99871.31;;;32.14;28.61
64683;BME280;51107;47.652;19.016;2022-08-04T13:30:11;99870.44;;;32.38;27.87
64683;BME280;51107;47.652;19.016;2022-08-04T13:32:57;99864.41;;;32.27;28.50
64683;BME280;51107;47.652;19.016;2022-08-04T13:35:27;99860.97;;;32.02;29.09
64683;BME280;51107;47.652;19.016;2022-08-04T13:38:16;99856.53;;;32.11;28.07
64683;BME280;51107;47.652;19.016;2022-08-04T13:40:46;99852.69;;;32.17;28.15
64683;BME280;51107;47.652;19.016;2022-08-04T13:43:26;99849.13;;;32.22;28.34
64683;BME280;51107;47.652;19.016;2022-08-04T13:46:21;99846.50;;;32.17;28.17
64683;BME280;51107;47.652;19.016;2022-08-04T13:48:56;99846.25;;;32.32;27.27
64683;BME280;51107;47.652;19.016;2022-08-04T13:51:50;99842.19;;;32.16;28.05
64683;BME280;51107;47.652;19.016;2022-08-04T13:54:35;99847.00;;;32.19;27.37
64683;BME280;51107;47.652;19.016;2022-08-04T13:57:18;99838.84;;;32.24;26.77
64683;BME280;51107;47.652;19.016;2022-08-04T13:59:52;99833.53;;;32.19;28.23
64683;BME280;51107;47.652;19.016;2022-08-04T14:05:08;99827.03;;;32.20;28.11
64683;BME280;51107;47.652;19.016;2022-08-04T14:08:29;99831.94;;;32.18;27.56
64683;BME280;51107;47.652;19.016;2022-08-04T14:10:38;99823.34;;;32.16;27.53
64683;BME280;51107;47.652;19.016;2022-08-04T14:13:07;99822.00;;;32.13;28.10
64683;BME280;51107;47.652;19.016;2022-08-04T14:15:43;99816.06;;;32.16;28.86
64683;BME280;51107;47.652;19.016;2022-08-04T14:18:31;99817.41;;;32.33;27.44
64683;BME280;51107;47.652;19.016;2022-08-04T14:21:10;99804.50;;;32.30;28.33
64683;BME280;51107;47.652;19.016;2022-08-04T14:23:49;99807.12;;;32.35;27.67
64683;BME280;51107;47.652;19.016;2022-08-04T14:26:28;99812.91;;;32.28;28.42
64683;BME280;51107;47.652;19.016;2022-08-04T14:29:12;99806.84;;;32.37;28.34
64683;BME280;51107;47.652;19.016;2022-08-04T14:32:00;99801.44;;;32.37;27.86
64683;BME280;51107;47.652;19.016;2022-08-04T14:34:31;99803.37;;;32.17;27.79
64683;BME280;51107;47.652;19.016;2022-08-04T14:37:09;99805.72;;;32.24;28.37
64683;BME280;51107;47.652;19.016;2022-08-04T14:39:51;99795.94;;;32.28;28.57
64683;BME280;51107;47.652;19.016;2022-08-04T14:42:42;99809.56;;;32.17;27.48
64683;BME280;51107;47.652;19.016;2022-08-04T14:45:40;99810.00;;;32.25;28.86
64683;BME280;51107;47.652;19.016;2022-08-04T14:48:22;99802.66;;;32.11;28.53
64683;BME280;51107;47.652;19.016;2022-08-04T14:50:50;99804.19;;;32.17;27.48
64683;BME280;51107;47.652;19.016;2022-08-04T14:53:24;99797.09;;;32.22;28.58
64683;BME280;51107;47.652;19.016;2022-08-04T14:55:59;99808.03;;;32.11;28.42
64683;BME280;51107;47.652;19.016;2022-08-04T14:58:32;99799.94;;;32.11;28.44
64683;BME280;51107;47.652;19.016;2022-08-04T15:01:08;99804.41;;;32.21;28.54
64683;BME280;51107;47.652;19.016;2022-08-04T15:03:43;99800.50;;;32.27;27.49
64683;BME280;51107;47.652;19.016;2022-08-04T15:06:20;99805.53;;;32.34;28.40
64683;BME280;51107;47.652;19.016;2022-08-04T15:08:52;99798.84;;;32.45;26.40
64683;BME280;51107;47.652;19.016;2022-08-04T15:11:21;99802.37;;;32.46;26.93
64683;BME280;51107;47.652;19.016;2022-08-04T15:13:52;99797.31;;;32.58;26.25
64683;BME280;51107;47.652;19.016;2022-08-04T15:16:21;99801.97;;;32.39;27.61
64683;BME280;51107;47.652;19.016;2022-08-04T15:18:51;99802.84;;;32.48;26.17
64683;BME280;51107;47.652;19.016;2022-08-04T15:21:22;99794.19;;;32.51;26.54
64683;BME280;51107;47.652;19.016;2022-08-04T15:23:51;99794.97;;;32.38;26.28
64683;BME280;51107;47.652;19.016;2022-08-04T15:26:31;99796.72;;;32.28;27.27
64683;BME280;51107;47.652;19.016;2022-08-04T15:29:05;99793.09;;;32.19;28.59
64683;BME280;51107;47.652;19.016;2022-08-04T15:31:40;99795.00;;;32.18;28.06
64683;BME280;51107;47.652;19.016;2022-08-04T15:37:16;99790.56;;;32.09;27.92
64683;BME280;51107;47.652;19.016;2022-08-04T15:39:58;99789.97;;;32.12;27.37
64683;BME280;51107;47.652;19.016;2022-08-04T15:42:47;99779.47;;;32.10;27.65
64683;BME280;51107;47.652;19.016;2022-08-04T15:45:24;99547.62;;;30.51;29.09
64683;BME280;51107;47.652;19.016;2022-08-04T15:53:27;99783.81;;;31.92;27.51
64683;BME280;51107;47.652;19.016;2022-08-04T15:58:54;99784.34;;;31.75;28.66
64683;BME280;51107;47.652;19.016;2022-08-04T16:01:23;99767.81;;;31.63;28.87
64683;BME280;51107;47.652;19.016;2022-08-04T16:03:53;99779.56;;;31.48;29.14
64683;BME280;51107;47.652;19.016;2022-08-04T16:08:59;99782.19;;;31.53;28.55
64683;BME280;51107;47.652;19.016;2022-08-04T16:21:49;99769.94;;;31.42;28.33
64683;BME280;51107;47.652;19.016;2022-08-04T16:27:06;99765.94;;;31.20;29.73
64683;BME280;51107;47.652;19.016;2022-08-04T16:29:41;99768.16;;;31.13;29.77
64683;BME280;51107;47.652;19.016;2022-08-04T16:32:17;99762.00;;;31.12;29.72
64683;BME280;51107;47.652;19.016;2022-08-04T16:34:58;99761.75;;;31.09;29.55
64683;BME280;51107;47.652;19.016;2022-08-04T16:37:41;99761.06;;;30.98;30.19
64683;BME280;51107;47.652;19.016;2022-08-04T16:40:42;99754.94;;;30.92;29.94
64683;BME280;51107;47.652;19.016;2022-08-04T16:43:13;99758.00;;;30.86;30.86
64683;BME280;51107;47.652;19.016;2022-08-04T16:45:52;99754.06;;;30.73;30.67
64683;BME280;51107;47.652;19.016;2022-08-04T16:48:26;99763.81;;;30.69;30.96
64683;BME280;51107;47.652;19.016;2022-08-04T16:50:56;99760.31;;;30.68;29.88
64683;BME280;51107;47.652;19.016;2022-08-04T16:53:42;99758.75;;;30.62;30.71
64683;BME280;51107;47.652;19.016;2022-08-04T16:56:29;99758.84;;;30.57;30.26
64683;BME280;51107;47.652;19.016;2022-08-04T16:59:05;99759.38;;;30.54;31.50
64683;BME280;51107;47.652;19.016;2022-08-04T17:01:35;99759.44;;;30.48;31.28
64683;BME280;51107;47.652;19.016;2022-08-04T17:04:04;99761.12;;;30.39;31.36
64683;BME280;51107;47.652;19.016;2022-08-04T17:06:39;99762.47;;;30.37;31.72
64683;BME280;51107;47.652;19.016;2022-08-04T17:09:10;99766.56;;;30.29;31.59
64683;BME280;51107;47.652;19.016;2022-08-04T17:11:41;99760.16;;;30.25;31.88
64683;BME280;51107;47.652;19.016;2022-08-04T17:14:10;99763.41;;;30.22;32.19
64683;BME280;51107;47.652;19.016;2022-08-04T17:16:42;99766.69;;;30.13;32.34